sensor_id;sensor_type;location;lat;lon;timestamp;temperature;humidity
18101;DHT22;9177;49.156;8.142;2022-10-16T00:01:46;20.60;99.90
18101;DHT22;9177;49.156;8.142;2022-10-16T00:04:13;20.60;99.90
18101;DHT22;9177;49.156;8.142;2022-10-16T00:06:40;20.60;99.90
18101;DHT22;9177;49.156;8.142;2022-10-16T00:09:10;20.60;99.90
18101;DHT22;9177;49.156;8.142;2022-10-16T00:11:39;20.60;99.90
18101;DHT22;9177;49.156;8.142;2022-10-16T00:14:09;20.60;99.90
18101;DHT22;9177;49.156;8.142;2022-10-16T00:16:37;20.60;99.90
18101;DHT22;9177;49.156;8.142;2022-10-16T00:19:04;20.60;99.90
18101;DHT22;9177;49.156;8.142;2022-10-16T00:21:31;20.60;99.90
18101;DHT22;9177;49.156;8.142;2022-10-16T00:24:00;20.60;99.90
18101;DHT22;9177;49.156;8.142;2022-10-16T00:26:30;20.60;99.90
18101;DHT22;9177;49.156;8.142;2022-10-16T00:28:58;20.60;99.90
18101;DHT22;9177;49.156;8.142;2022-10-16T00:31:25;20.60;99.90
18101;DHT22;9177;49.156;8.142;2022-10-16T00:33:52;20.60;99.90
18101;DHT22;9177;49.156;8.142;2022-10-16T00:36:21;20.60;99.90
18101;DHT22;9177;49.156;8.142;2022-10-16T00:38:50;20.60;99.90
18101;DHT22;9177;49.156;8.142;2022-10-16T00:41:18;20.60;99.90
18101;DHT22;9177;49.156;8.142;2022-10-16T00:43:49;20.60;99.90
18101;DHT22;9177;49.156;8.142;2022-10-16T00:46:19;20.60;99.90
18101;DHT22;9177;49.156;8.142;2022-10-16T00:48:51;20.60;99.90
18101;DHT22;9177;49.156;8.142;2022-10-16T00:51:23;20.60;99.90
18101;DHT22;9177;49.156;8.142;2022-10-16T00:53:50;20.60;99.90
18101;DHT22;9177;49.156;8.142;2022-10-16T00:56:18;20.60;99.90
18101;DHT22;9177;49.156;8.142;2022-10-16T00:58:51;20.60;99.90
18101;DHT22;9177;49.156;8.142;2022-10-16T01:01:18;20.60;99.90
18101;DHT22;9177;49.156;8.142;2022-10-16T01:03:45;20.60;99.90
18101;DHT22;9177;49.156;8.142;2022-10-16T01:06:21;20.60;99.90
18101;DHT22;9177;49.156;8.142;2022-10-16T01:08:57;20.60;99.90
18101;DHT22;9177;49.156;8.142;2022-10-16T01:11:28;20.60;99.90
18101;DHT22;9177;49.156;8.142;2022-10-16T01:14:01;20.60;99.90
18101;DHT22;9177;49.156;8.142;2022-10-16T01:16:35;20.60;99.90
18101;DHT22;9177;49.156;8.142;2022-10-16T01:19:09;20.60;99.90
18101;DHT22;9177;49.156;8.142;2022-10-16T01:21:41;20.60;99.90
18101;DHT22;9177;49.156;8.142;2022-10-16T01:24:16;20.60;99.90
18101;DHT22;9177;49.156;8.142;2022-10-16T01:27:05;20.60;99.90
18101;DHT22;9177;49.156;8.142;2022-10-16T01:29:36;20.60;99.90
18101;DHT22;9177;49.156;8.142;2022-10-16T01:32:10;20.60;99.90
18101;DHT22;9177;49.156;8.142;2022-10-16T01:34:41;20.60;99.90
18101;DHT22;9177;49.156;8.142;2022-10-16T01:37:13;20.60;99.90
18101;DHT22;9177;49.156;8.142;2022-10-16T01:39:42;20.60;99.90
18101;DHT22;9177;49.156;8.142;2022-10-16T01:42:15;20.60;99.90
18101;DHT22;9177;49.156;8.142;2022-10-16T01:44:44;20.60;99.90
18101;DHT22;9177;49.156;8.142;2022-10-16T01:47:13;20.60;99.90
18101;DHT22;9177;49.156;8.142;2022-10-16T01:49:42;20.60;99.90
18101;DHT22;9177;49.156;8.142;2022-10-16T01:52:13;20.60;99.90
18101;DHT22;9177;49.156;8.142;2022-10-16T01:54:43;20.60;99.90
18101;DHT22;9177;49.156;8.142;2022-10-16T01:57:14;20.60;99.90
18101;DHT22;9177;49.156;8.142;2022-10-16T01:59:45;20.60;99.90
18101;DHT22;9177;49.156;8.142;2022-10-16T02:02:15;20.60;99.90
18101;DHT22;9177;49.156;8.142;2022-10-16T02:04:46;20.60;99.90
18101;DHT22;9177;49.156;8.142;2022-10-16T02:07:14;20.50;99.90
18101;DHT22;9177;49.156;8.142;2022-10-16T02:09:41;20.60;99.90
18101;DHT22;9177;49.156;8.142;2022-10-16T02:12:13;20.60;99.90
18101;DHT22;9177;49.156;8.142;2022-10-16T02:14:43;20.60;99.90
18101;DHT22;9177;49.156;8.142;2022-10-16T02:17:11;20.60;99.90
18101;DHT22;9177;49.156;8.142;2022-10-16T02:19:39;20.50;99.90
18101;DHT22;9177;49.156;8.142;2022-10-16T02:22:09;20.60;99.90
18101;DHT22;9177;49.156;8.142;2022-10-16T02:24:43;20.60;99.90
18101;DHT22;9177;49.156;8.142;2022-10-16T02:27:17;20.60;99.90
18101;DHT22;9177;49.156;8.142;2022-10-16T02:29:49;20.60;99.90
18101;DHT22;9177;49.156;8.142;2022-10-16T02:32:21;20.60;99.90
18101;DHT22;9177;49.156;8.142;2022-10-16T02:34:49;20.50;99.90
18101;DHT22;9177;49.156;8.142;2022-10-16T02:37:18;20.50;99.90
18101;DHT22;9177;49.156;8.142;2022-10-16T02:39:45;20.60;99.90
18101;DHT22;9177;49.156;8.142;2022-10-16T02:42:12;20.60;99.90
18101;DHT22;9177;49.156;8.142;2022-10-16T02:44:39;20.60;99.90
18101;DHT22;9177;49.156;8.142;2022-10-16T02:47:08;20.60;99.90
18101;DHT22;9177;49.156;8.142;2022-10-16T02:49:35;20.60;99.90
18101;DHT22;9177;49.156;8.142;2022-10-16T02:52:01;20.60;99.90
18101;DHT22;9177;49.156;8.142;2022-10-16T02:54:28;20.60;99.90
18101;DHT22;9177;49.156;8.142;2022-10-16T02:56:55;20.60;99.90
18101;DHT22;9177;49.156;8.142;2022-10-16T02:59:22;20.60;99.90
18101;DHT22;9177;49.156;8.142;2022-10-16T03:01:49;20.60;99.90
18101;DHT22;9177;49.156;8.142;2022-10-16T03:04:17;20.60;99.90
18101;DHT22;9177;49.156;8.142;2022-10-16T03:06:44;20.60;99.90
18101;DHT22;9177;49.156;8.142;2022-10-16T03:09:11;20.60;99.90
18101;DHT22;9177;49.156;8.142;2022-10-16T03:11:38;20.60;99.90
18101;DHT22;9177;49.156;8.142;2022-10-16T03:14:05;20.60;99.90
18101;DHT22;9177;49.156;8.142;2022-10-16T03:16:32;20.60;99.90
18101;DHT22;9177;49.156;8.142;2022-10-16T03:18:59;20.60;99.90
18101;DHT22;9177;49.156;8.142;2022-10-16T03:21:27;20.50;99.90
18101;DHT22;9177;49.156;8.142;2022-10-16T03:23:53;20.50;99.90
18101;DHT22;9177;49.156;8.142;2022-10-16T03:26:20;20.60;99.90
18101;DHT22;9177;49.156;8.142;2022-10-16T03:28:47;20.50;99.90
18101;DHT22;9177;49.156;8.142;2022-10-16T03:31:14;20.60;99.90
18101;DHT22;9177;49.156;8.142;2022-10-16T03:33:41;20.50;99.90
18101;DHT22;9177;49.156;8.142;2022-10-16T03:36:08;20.50;99.90
18101;DHT22;9177;49.156;8.142;2022-10-16T03:38:36;20.60;99.90
18101;DHT22;9177;49.156;8.142;2022-10-16T03:41:03;20.50;99.90
18101;DHT22;9177;49.156;8.142;2022-10-16T03:43:30;20.60;99.90
18101;DHT22;9177;49.156;8.142;2022-10-16T03:45:57;20.60;99.90
18101;DHT22;9177;49.156;8.142;2022-10-16T03:48:24;20.60;99.90
18101;DHT22;9177;49.156;8.142;2022-10-16T03:50:50;20.50;99.90
18101;DHT22;9177;49.156;8.142;2022-10-16T03:53:17;20.60;99.90
18101;DHT22;9177;49.156;8.142;2022-10-16T03:55:45;20.60;99.90
18101;DHT22;9177;49.156;8.142;2022-10-16T03:58:12;20.60;99.90
18101;DHT22;9177;49.156;8.142;2022-10-16T04:00:40;20.60;99.90
18101;DHT22;9177;49.156;8.142;2022-10-16T04:03:07;20.60;99.90
18101;DHT22;9177;49.156;8.142;2022-10-16T04:05:34;20.50;99.90
18101;DHT22;9177;49.156;8.142;2022-10-16T04:08:01;20.60;99.90
18101;DHT22;9177;49.156;8.142;2022-10-16T04:10:28;20.50;99.90
18101;DHT22;9177;49.156;8.142;2022-10-16T04:12:56;20.50;99.90
18101;DHT22;9177;49.156;8.142;2022-10-16T04:15:23;20.60;99.90
18101;DHT22;9177;49.156;8.142;2022-10-16T04:17:51;20.60;99.90
18101;DHT22;9177;49.156;8.142;2022-10-16T04:20:18;20.50;99.90
18101;DHT22;9177;49.156;8.142;2022-10-16T04:22:45;20.50;99.90
18101;DHT22;9177;49.156;8.142;2022-10-16T04:25:11;20.50;99.90
18101;DHT22;9177;49.156;8.142;2022-10-16T04:27:38;20.50;99.90
18101;DHT22;9177;49.156;8.142;2022-10-16T04:30:07;20.60;99.90
18101;DHT22;9177;49.156;8.142;2022-10-16T04:32:34;20.50;99.90
18101;DHT22;9177;49.156;8.142;2022-10-16T04:35:01;20.60;99.90
18101;DHT22;9177;49.156;8.142;2022-10-16T04:37:28;20.50;99.90
18101;DHT22;9177;49.156;8.142;2022-10-16T04:39:55;20.50;99.90
18101;DHT22;9177;49.156;8.142;2022-10-16T04:42:22;20.50;99.90
18101;DHT22;9177;49.156;8.142;2022-10-16T04:44:49;20.50;99.90
18101;DHT22;9177;49.156;8.142;2022-10-16T04:47:17;20.50;99.90
18101;DHT22;9177;49.156;8.142;2022-10-16T04:49:44;20.50;99.90
18101;DHT22;9177;49.156;8.142;2022-10-16T04:52:11;20.50;99.90
18101;DHT22;9177;49.156;8.142;2022-10-16T04:54:37;20.50;99.90
18101;DHT22;9177;49.156;8.142;2022-10-16T04:57:08;20.50;99.90
18101;DHT22;9177;49.156;8.142;2022-10-16T04:59:35;20.50;99.90
18101;DHT22;9177;49.156;8.142;2022-10-16T05:02:02;20.50;99.90
18101;DHT22;9177;49.156;8.142;2022-10-16T05:04:30;20.50;99.90
18101;DHT22;9177;49.156;8.142;2022-10-16T05:06:58;20.60;99.90
18101;DHT22;9177;49.156;8.142;2022-10-16T05:09:24;20.50;99.90
18101;DHT22;9177;49.156;8.142;2022-10-16T05:11:51;20.50;99.90
18101;DHT22;9177;49.156;8.142;2022-10-16T05:14:18;20.60;99.90
18101;DHT22;9177;49.156;8.142;2022-10-16T05:16:45;20.50;99.90
18101;DHT22;9177;49.156;8.142;2022-10-16T05:19:13;20.60;99.90
18101;DHT22;9177;49.156;8.142;2022-10-16T05:21:41;20.50;99.90
18101;DHT22;9177;49.156;8.142;2022-10-16T05:24:08;20.50;99.90
18101;DHT22;9177;49.156;8.142;2022-10-16T05:26:35;20.50;99.90
18101;DHT22;9177;49.156;8.142;2022-10-16T05:29:02;20.50;99.90
18101;DHT22;9177;49.156;8.142;2022-10-16T05:31:29;20.50;99.90
18101;DHT22;9177;49.156;8.142;2022-10-16T05:33:58;20.50;99.90
18101;DHT22;9177;49.156;8.142;2022-10-16T05:36:25;20.50;99.90
18101;DHT22;9177;49.156;8.142;2022-10-16T05:38:53;20.50;99.90
18101;DHT22;9177;49.156;8.142;2022-10-16T05:41:21;20.50;99.90
18101;DHT22;9177;49.156;8.142;2022-10-16T05:43:49;20.50;99.90
18101;DHT22;9177;49.156;8.142;2022-10-16T05:46:16;20.50;99.90
18101;DHT22;9177;49.156;8.142;2022-10-16T05:48:46;20.50;99.90
18101;DHT22;9177;49.156;8.142;2022-10-16T05:51:14;20.50;99.90
18101;DHT22;9177;49.156;8.142;2022-10-16T05:53:41;20.50;99.90
18101;DHT22;9177;49.156;8.142;2022-10-16T05:56:11;20.50;99.90
18101;DHT22;9177;49.156;8.142;2022-10-16T05:58:39;20.50;99.90
18101;DHT22;9177;49.156;8.142;2022-10-16T06:01:09;20.50;99.90
18101;DHT22;9177;49.156;8.142;2022-10-16T06:03:36;20.50;99.90
18101;DHT22;9177;49.156;8.142;2022-10-16T06:06:08;20.50;99.90
18101;DHT22;9177;49.156;8.142;2022-10-16T06:08:35;20.50;99.90
18101;DHT22;9177;49.156;8.142;2022-10-16T06:11:02;20.50;99.90
18101;DHT22;9177;49.156;8.142;2022-10-16T06:13:30;20.50;99.90
18101;DHT22;9177;49.156;8.142;2022-10-16T06:15:58;20.50;99.90
18101;DHT22;9177;49.156;8.142;2022-10-16T06:18:27;20.50;99.90
18101;DHT22;9177;49.156;8.142;2022-10-16T06:20:54;20.50;99.90
18101;DHT22;9177;49.156;8.142;2022-10-16T06:23:22;20.50;99.90
18101;DHT22;9177;49.156;8.142;2022-10-16T06:25:48;20.50;99.90
18101;DHT22;9177;49.156;8.142;2022-10-16T06:28:16;20.50;99.90
18101;DHT22;9177;49.156;8.142;2022-10-16T06:30:44;20.50;99.90
18101;DHT22;9177;49.156;8.142;2022-10-16T06:33:11;20.50;99.90
18101;DHT22;9177;49.156;8.142;2022-10-16T06:35:38;20.50;99.90
18101;DHT22;9177;49.156;8.142;2022-10-16T06:38:05;20.50;99.90
18101;DHT22;9177;49.156;8.142;2022-10-16T06:40:31;20.50;99.90
18101;DHT22;9177;49.156;8.142;2022-10-16T06:42:58;20.50;99.90
18101;DHT22;9177;49.156;8.142;2022-10-16T06:45:25;20.50;99.90
18101;DHT22;9177;49.156;8.142;2022-10-16T06:47:53;20.50;99.90
18101;DHT22;9177;49.156;8.142;2022-10-16T06:50:20;20.50;99.90
18101;DHT22;9177;49.156;8.142;2022-10-16T06:52:47;20.50;99.90
18101;DHT22;9177;49.156;8.142;2022-10-16T06:55:14;20.50;99.90
18101;DHT22;9177;49.156;8.142;2022-10-16T06:57:42;20.50;99.90
18101;DHT22;9177;49.156;8.142;2022-10-16T07:00:10;20.50;99.90
18101;DHT22;9177;49.156;8.142;2022-10-16T07:02:37;20.50;99.90
18101;DHT22;9177;49.156;8.142;2022-10-16T07:05:05;20.50;99.90
18101;DHT22;9177;49.156;8.142;2022-10-16T07:07:32;20.50;99.90
18101;DHT22;9177;49.156;8.142;2022-10-16T07:09:59;20.50;99.90
18101;DHT22;9177;49.156;8.142;2022-10-16T07:12:26;20.50;99.90
18101;DHT22;9177;49.156;8.142;2022-10-16T07:14:53;20.50;99.90
18101;DHT22;9177;49.156;8.142;2022-10-16T07:17:21;20.50;99.90
18101;DHT22;9177;49.156;8.142;2022-10-16T07:19:48;20.50;99.90
18101;DHT22;9177;49.156;8.142;2022-10-16T07:22:16;20.50;99.90
18101;DHT22;9177;49.156;8.142;2022-10-16T07:24:44;20.50;99.90
18101;DHT22;9177;49.156;8.142;2022-10-16T07:27:11;20.50;99.90
18101;DHT22;9177;49.156;8.142;2022-10-16T07:29:38;20.50;99.90
18101;DHT22;9177;49.156;8.142;2022-10-16T07:32:07;20.50;99.90
18101;DHT22;9177;49.156;8.142;2022-10-16T07:34:34;20.50;99.90
18101;DHT22;9177;49.156;8.142;2022-10-16T07:37:01;20.50;99.90
18101;DHT22;9177;49.156;8.142;2022-10-16T07:39:29;20.50;99.90
18101;DHT22;9177;49.156;8.142;2022-10-16T07:41:56;20.50;99.90
18101;DHT22;9177;49.156;8.142;2022-10-16T07:44:23;20.50;99.90
18101;DHT22;9177;49.156;8.142;2022-10-16T07:46:57;20.50;99.90
18101;DHT22;9177;49.156;8.142;2022-10-16T07:49:24;20.50;99.90
18101;DHT22;9177;49.156;8.142;2022-10-16T07:51:51;20.50;99.90
18101;DHT22;9177;49.156;8.142;2022-10-16T07:54:18;20.50;99.90
18101;DHT22;9177;49.156;8.142;2022-10-16T07:56:46;20.50;99.90
18101;DHT22;9177;49.156;8.142;2022-10-16T07:59:13;20.50;99.90
18101;DHT22;9177;49.156;8.142;2022-10-16T08:01:40;20.50;99.90
18101;DHT22;9177;49.156;8.142;2022-10-16T08:04:08;20.50;99.90
18101;DHT22;9177;49.156;8.142;2022-10-16T08:06:36;20.50;99.90
18101;DHT22;9177;49.156;8.142;2022-10-16T08:09:03;20.50;99.90
18101;DHT22;9177;49.156;8.142;2022-10-16T08:11:30;20.50;99.90
18101;DHT22;9177;49.156;8.142;2022-10-16T08:13:58;20.50;99.90
18101;DHT22;9177;49.156;8.142;2022-10-16T08:16:26;20.50;99.90
18101;DHT22;9177;49.156;8.142;2022-10-16T08:18:53;20.50;99.90
18101;DHT22;9177;49.156;8.142;2022-10-16T08:21:21;20.50;99.90
18101;DHT22;9177;49.156;8.142;2022-10-16T08:23:49;20.60;99.90
18101;DHT22;9177;49.156;8.142;2022-10-16T08:26:16;20.60;99.90
18101;DHT22;9177;49.156;8.142;2022-10-16T08:28:44;20.60;99.90
18101;DHT22;9177;49.156;8.142;2022-10-16T08:31:15;20.70;99.90
18101;DHT22;9177;49.156;8.142;2022-10-16T08:33:43;20.70;99.90
18101;DHT22;9177;49.156;8.142;2022-10-16T08:36:13;20.70;99.90
18101;DHT22;9177;49.156;8.142;2022-10-16T08:38:40;20.60;99.90
18101;DHT22;9177;49.156;8.142;2022-10-16T08:41:26;20.60;99.90
18101;DHT22;9177;49.156;8.142;2022-10-16T08:44:23;20.60;99.90
18101;DHT22;9177;49.156;8.142;2022-10-16T08:47:02;20.60;99.90
18101;DHT22;9177;49.156;8.142;2022-10-16T08:49:32;20.60;99.90
18101;DHT22;9177;49.156;8.142;2022-10-16T08:51:59;20.60;99.90
18101;DHT22;9177;49.156;8.142;2022-10-16T08:54:31;20.60;99.90
18101;DHT22;9177;49.156;8.142;2022-10-16T08:57:08;20.60;99.90
18101;DHT22;9177;49.156;8.142;2022-10-16T08:59:35;20.60;99.90
18101;DHT22;9177;49.156;8.142;2022-10-16T09:02:20;20.60;99.90
18101;DHT22;9177;49.156;8.142;2022-10-16T09:04:57;20.60;99.90
18101;DHT22;9177;49.156;8.142;2022-10-16T09:07:32;20.60;99.90
18101;DHT22;9177;49.156;8.142;2022-10-16T09:10:19;20.60;99.90
18101;DHT22;9177;49.156;8.142;2022-10-16T09:12:54;20.70;99.90
18101;DHT22;9177;49.156;8.142;2022-10-16T09:15:29;20.80;99.90
18101;DHT22;9177;49.156;8.142;2022-10-16T09:18:03;20.80;99.90
18101;DHT22;9177;49.156;8.142;2022-10-16T09:20:35;20.90;99.90
18101;DHT22;9177;49.156;8.142;2022-10-16T09:23:14;20.90;99.90
18101;DHT22;9177;49.156;8.142;2022-10-16T09:25:44;21.00;99.90
18101;DHT22;9177;49.156;8.142;2022-10-16T09:28:13;21.00;99.90
18101;DHT22;9177;49.156;8.142;2022-10-16T09:30:40;21.00;99.90
18101;DHT22;9177;49.156;8.142;2022-10-16T09:33:10;21.10;99.90
18101;DHT22;9177;49.156;8.142;2022-10-16T09:35:40;21.10;99.90
18101;DHT22;9177;49.156;8.142;2022-10-16T09:38:22;21.10;99.90
18101;DHT22;9177;49.156;8.142;2022-10-16T09:40:49;21.10;99.90
18101;DHT22;9177;49.156;8.142;2022-10-16T09:43:21;21.10;99.90
18101;DHT22;9177;49.156;8.142;2022-10-16T09:45:58;21.10;99.90
18101;DHT22;9177;49.156;8.142;2022-10-16T09:48:31;21.10;99.90
18101;DHT22;9177;49.156;8.142;2022-10-16T09:51:02;21.10;99.90
18101;DHT22;9177;49.156;8.142;2022-10-16T09:53:41;21.10;99.90
18101;DHT22;9177;49.156;8.142;2022-10-16T09:56:11;21.20;99.90
18101;DHT22;9177;49.156;8.142;2022-10-16T09:58:42;21.30;99.90
18101;DHT22;9177;49.156;8.142;2022-10-16T10:01:13;21.30;99.90
18101;DHT22;9177;49.156;8.142;2022-10-16T10:03:43;21.40;99.90
18101;DHT22;9177;49.156;8.142;2022-10-16T10:06:21;21.40;99.90
18101;DHT22;9177;49.156;8.142;2022-10-16T10:08:57;21.50;99.90
18101;DHT22;9177;49.156;8.142;2022-10-16T10:11:52;21.50;99.90
18101;DHT22;9177;49.156;8.142;2022-10-16T10:14:24;21.50;99.90
18101;DHT22;9177;49.156;8.142;2022-10-16T10:17:01;21.50;99.90
18101;DHT22;9177;49.156;8.142;2022-10-16T10:19:37;21.60;99.90
18101;DHT22;9177;49.156;8.142;2022-10-16T10:22:22;21.70;99.90
18101;DHT22;9177;49.156;8.142;2022-10-16T10:24:57;21.70;99.90
18101;DHT22;9177;49.156;8.142;2022-10-16T10:27:32;21.70;99.90
18101;DHT22;9177;49.156;8.142;2022-10-16T10:30:08;21.70;99.90
18101;DHT22;9177;49.156;8.142;2022-10-16T10:32:43;21.80;99.90
18101;DHT22;9177;49.156;8.142;2022-10-16T10:35:18;21.80;99.90
18101;DHT22;9177;49.156;8.142;2022-10-16T10:37:56;21.80;99.90
18101;DHT22;9177;49.156;8.142;2022-10-16T10:40:39;21.80;99.90
18101;DHT22;9177;49.156;8.142;2022-10-16T10:43:16;21.90;99.90
18101;DHT22;9177;49.156;8.142;2022-10-16T10:45:47;21.90;99.90
18101;DHT22;9177;49.156;8.142;2022-10-16T10:48:22;21.90;99.90
18101;DHT22;9177;49.156;8.142;2022-10-16T10:50:57;21.90;99.90
18101;DHT22;9177;49.156;8.142;2022-10-16T10:53:35;21.80;99.90
18101;DHT22;9177;49.156;8.142;2022-10-16T10:56:16;21.80;99.90
18101;DHT22;9177;49.156;8.142;2022-10-16T10:59:02;21.80;99.90
18101;DHT22;9177;49.156;8.142;2022-10-16T11:01:40;21.80;99.90
18101;DHT22;9177;49.156;8.142;2022-10-16T11:04:36;21.80;99.90
18101;DHT22;9177;49.156;8.142;2022-10-16T11:07:11;21.80;99.90
18101;DHT22;9177;49.156;8.142;2022-10-16T11:09:44;21.80;99.90
18101;DHT22;9177;49.156;8.142;2022-10-16T11:12:17;21.70;99.90
18101;DHT22;9177;49.156;8.142;2022-10-16T11:14:49;21.70;99.90
18101;DHT22;9177;49.156;8.142;2022-10-16T11:17:21;21.70;99.90
18101;DHT22;9177;49.156;8.142;2022-10-16T11:19:54;21.70;99.90
18101;DHT22;9177;49.156;8.142;2022-10-16T11:22:29;21.60;99.90
18101;DHT22;9177;49.156;8.142;2022-10-16T11:25:04;21.60;99.90
18101;DHT22;9177;49.156;8.142;2022-10-16T11:27:36;21.60;99.90
18101;DHT22;9177;49.156;8.142;2022-10-16T11:30:08;21.60;99.90
18101;DHT22;9177;49.156;8.142;2022-10-16T11:32:50;21.50;99.90
18101;DHT22;9177;49.156;8.142;2022-10-16T11:35:22;21.50;99.90
18101;DHT22;9177;49.156;8.142;2022-10-16T11:37:53;21.50;99.90
18101;DHT22;9177;49.156;8.142;2022-10-16T11:40:28;21.50;99.90
18101;DHT22;9177;49.156;8.142;2022-10-16T11:43:01;21.50;99.90
18101;DHT22;9177;49.156;8.142;2022-10-16T11:45:34;21.50;99.90
18101;DHT22;9177;49.156;8.142;2022-10-16T11:48:10;21.50;99.90
18101;DHT22;9177;49.156;8.142;2022-10-16T11:50:45;21.50;99.90
18101;DHT22;9177;49.156;8.142;2022-10-16T11:53:23;21.50;99.90
18101;DHT22;9177;49.156;8.142;2022-10-16T11:55:56;21.50;99.90
18101;DHT22;9177;49.156;8.142;2022-10-16T11:58:26;21.50;99.90
18101;DHT22;9177;49.156;8.142;2022-10-16T12:00:59;21.40;99.90
18101;DHT22;9177;49.156;8.142;2022-10-16T12:03:32;21.40;99.90
18101;DHT22;9177;49.156;8.142;2022-10-16T12:06:15;21.40;99.90
18101;DHT22;9177;49.156;8.142;2022-10-16T12:08:47;21.40;99.90
18101;DHT22;9177;49.156;8.142;2022-10-16T12:11:24;21.40;99.90
18101;DHT22;9177;49.156;8.142;2022-10-16T12:14:05;21.50;99.90
18101;DHT22;9177;49.156;8.142;2022-10-16T12:16:33;21.50;99.90
18101;DHT22;9177;49.156;8.142;2022-10-16T12:19:11;21.50;99.90
18101;DHT22;9177;49.156;8.142;2022-10-16T12:21:38;21.50;99.90
18101;DHT22;9177;49.156;8.142;2022-10-16T12:24:21;21.50;99.90
18101;DHT22;9177;49.156;8.142;2022-10-16T12:26:50;21.40;99.90
18101;DHT22;9177;49.156;8.142;2022-10-16T12:29:25;21.40;99.90
18101;DHT22;9177;49.156;8.142;2022-10-16T12:31:53;21.40;99.90
18101;DHT22;9177;49.156;8.142;2022-10-16T12:34:23;21.40;99.90
18101;DHT22;9177;49.156;8.142;2022-10-16T12:36:53;21.40;99.90
18101;DHT22;9177;49.156;8.142;2022-10-16T12:39:24;21.40;99.90
18101;DHT22;9177;49.156;8.142;2022-10-16T12:42:01;21.40;99.90
18101;DHT22;9177;49.156;8.142;2022-10-16T12:44:34;21.30;99.90
18101;DHT22;9177;49.156;8.142;2022-10-16T12:47:01;21.30;99.90
18101;DHT22;9177;49.156;8.142;2022-10-16T12:49:35;21.30;99.90
18101;DHT22;9177;49.156;8.142;2022-10-16T12:52:03;21.30;99.90
18101;DHT22;9177;49.156;8.142;2022-10-16T12:54:36;21.30;99.90
18101;DHT22;9177;49.156;8.142;2022-10-16T12:57:13;21.30;99.90
18101;DHT22;9177;49.156;8.142;2022-10-16T12:59:51;21.30;99.90
18101;DHT22;9177;49.156;8.142;2022-10-16T13:02:51;21.20;99.90
18101;DHT22;9177;49.156;8.142;2022-10-16T13:05:30;21.20;99.90
18101;DHT22;9177;49.156;8.142;2022-10-16T13:08:11;21.20;99.90
18101;DHT22;9177;49.156;8.142;2022-10-16T13:10:51;21.20;99.90
18101;DHT22;9177;49.156;8.142;2022-10-16T13:13:37;21.20;99.90
18101;DHT22;9177;49.156;8.142;2022-10-16T13:16:14;21.20;99.90
18101;DHT22;9177;49.156;8.142;2022-10-16T13:18:48;21.10;99.90
18101;DHT22;9177;49.156;8.142;2022-10-16T13:21:27;21.10;99.90
18101;DHT22;9177;49.156;8.142;2022-10-16T13:24:02;21.10;99.90
18101;DHT22;9177;49.156;8.142;2022-10-16T13:26:42;21.10;99.90
18101;DHT22;9177;49.156;8.142;2022-10-16T13:29:13;21.10;99.90
18101;DHT22;9177;49.156;8.142;2022-10-16T13:31:42;21.10;99.90
18101;DHT22;9177;49.156;8.142;2022-10-16T13:34:14;21.10;99.90
18101;DHT22;9177;49.156;8.142;2022-10-16T13:36:45;21.10;99.90
18101;DHT22;9177;49.156;8.142;2022-10-16T13:39:14;21.10;99.90
18101;DHT22;9177;49.156;8.142;2022-10-16T13:41:45;21.10;99.90
18101;DHT22;9177;49.156;8.142;2022-10-16T13:44:15;21.10;99.90
18101;DHT22;9177;49.156;8.142;2022-10-16T13:46:43;21.10;99.90
18101;DHT22;9177;49.156;8.142;2022-10-16T13:49:15;21.10;99.90
18101;DHT22;9177;49.156;8.142;2022-10-16T13:51:54;21.10;99.90
18101;DHT22;9177;49.156;8.142;2022-10-16T13:54:21;21.10;99.90
18101;DHT22;9177;49.156;8.142;2022-10-16T13:56:49;21.10;99.90
18101;DHT22;9177;49.156;8.142;2022-10-16T13:59:23;21.10;99.90
18101;DHT22;9177;49.156;8.142;2022-10-16T14:01:53;21.10;99.90
18101;DHT22;9177;49.156;8.142;2022-10-16T14:04:21;21.10;99.90
18101;DHT22;9177;49.156;8.142;2022-10-16T14:06:50;21.10;99.90
18101;DHT22;9177;49.156;8.142;2022-10-16T14:09:22;21.00;99.90
18101;DHT22;9177;49.156;8.142;2022-10-16T14:11:53;21.00;99.90
18101;DHT22;9177;49.156;8.142;2022-10-16T14:14:20;21.10;99.90
18101;DHT22;9177;49.156;8.142;2022-10-16T14:16:48;21.10;99.90
18101;DHT22;9177;49.156;8.142;2022-10-16T14:19:19;21.10;99.90
18101;DHT22;9177;49.156;8.142;2022-10-16T14:21:48;21.10;99.90
18101;DHT22;9177;49.156;8.142;2022-10-16T14:24:26;21.10;99.90
18101;DHT22;9177;49.156;8.142;2022-10-16T14:26:55;21.10;99.90
18101;DHT22;9177;49.156;8.142;2022-10-16T14:29:23;21.10;99.90
18101;DHT22;9177;49.156;8.142;2022-10-16T14:31:57;21.20;99.90
18101;DHT22;9177;49.156;8.142;2022-10-16T14:34:30;21.30;99.90
18101;DHT22;9177;49.156;8.142;2022-10-16T14:36:59;21.40;99.90
18101;DHT22;9177;49.156;8.142;2022-10-16T14:39:30;21.50;99.90
18101;DHT22;9177;49.156;8.142;2022-10-16T14:41:59;21.50;99.90
18101;DHT22;9177;49.156;8.142;2022-10-16T14:44:31;21.60;99.90
18101;DHT22;9177;49.156;8.142;2022-10-16T14:47:07;21.60;99.90
18101;DHT22;9177;49.156;8.142;2022-10-16T14:49:35;21.70;99.90
18101;DHT22;9177;49.156;8.142;2022-10-16T14:52:08;21.70;99.90
18101;DHT22;9177;49.156;8.142;2022-10-16T14:54:35;21.70;99.90
18101;DHT22;9177;49.156;8.142;2022-10-16T14:57:03;21.70;99.90
18101;DHT22;9177;49.156;8.142;2022-10-16T14:59:34;21.60;99.90
18101;DHT22;9177;49.156;8.142;2022-10-16T15:02:18;21.60;99.90
18101;DHT22;9177;49.156;8.142;2022-10-16T15:04:45;21.50;99.90
18101;DHT22;9177;49.156;8.142;2022-10-16T15:07:12;21.50;99.90
18101;DHT22;9177;49.156;8.142;2022-10-16T15:09:39;21.50;99.90
18101;DHT22;9177;49.156;8.142;2022-10-16T15:12:07;21.50;99.90
18101;DHT22;9177;49.156;8.142;2022-10-16T15:14:34;21.50;99.90
18101;DHT22;9177;49.156;8.142;2022-10-16T15:17:01;21.40;99.90
18101;DHT22;9177;49.156;8.142;2022-10-16T15:19:28;21.40;99.90
18101;DHT22;9177;49.156;8.142;2022-10-16T15:21:55;21.40;99.90
18101;DHT22;9177;49.156;8.142;2022-10-16T15:24:22;21.40;99.90
18101;DHT22;9177;49.156;8.142;2022-10-16T15:26:49;21.40;99.90
18101;DHT22;9177;49.156;8.142;2022-10-16T15:29:17;21.30;99.90
18101;DHT22;9177;49.156;8.142;2022-10-16T15:31:44;21.40;99.90
18101;DHT22;9177;49.156;8.142;2022-10-16T15:34:13;21.40;99.90
18101;DHT22;9177;49.156;8.142;2022-10-16T15:36:40;21.40;99.90
18101;DHT22;9177;49.156;8.142;2022-10-16T15:39:12;21.40;99.90
18101;DHT22;9177;49.156;8.142;2022-10-16T15:41:40;21.40;99.90
18101;DHT22;9177;49.156;8.142;2022-10-16T15:44:07;21.40;99.90
18101;DHT22;9177;49.156;8.142;2022-10-16T15:46:36;21.40;99.90
18101;DHT22;9177;49.156;8.142;2022-10-16T15:49:03;21.40;99.90
18101;DHT22;9177;49.156;8.142;2022-10-16T15:51:30;21.40;99.90
18101;DHT22;9177;49.156;8.142;2022-10-16T15:53:58;21.40;99.90
18101;DHT22;9177;49.156;8.142;2022-10-16T15:56:27;21.40;99.90
18101;DHT22;9177;49.156;8.142;2022-10-16T15:58:54;21.40;99.90
18101;DHT22;9177;49.156;8.142;2022-10-16T16:01:22;21.40;99.90
18101;DHT22;9177;49.156;8.142;2022-10-16T16:03:54;21.30;99.90
18101;DHT22;9177;49.156;8.142;2022-10-16T16:06:22;21.30;99.90